St Neots, United Kingdom
Current Conditions -  °F | °C
As of 7:50 PM on Thursday 30 Oct 2014 (Local Time) from EGSC Reporting Station
Clear Clear  
Wind Chill: 55°   Ceiling: Unl
Heat Index: 55°   Visibility: 5mi
Dew Point: 55°   Wind: 3mph
Humidity: 100%   Direction: NA
Pressure: 30.06"   Gusts: NA
Location:  52.22°N, 0.27°W
Report Text: EGSC 301950Z VRB03KT 8000 NSC 13/13 Q1018
Loading
Personal Weather Stations






























Interactive Weather Map
Tropical Storm Tracking
New forecast layout! Learn more

10-Day Weather Forecast

Advertisements
Track Severe Weather on mobile